sensor_id;sensor_type;location;lat;lon;timestamp;pressure;altitude;pressure_sealevel;temperature;humidity
77240;BME280;66258;53.170;-2.240;2024-03-29T00:01:09;96605.03;;;16.41;67.17
77240;BME280;66258;53.170;-2.240;2024-03-29T00:03:35;96607.22;;;16.39;66.99
77240;BME280;66258;53.170;-2.240;2024-03-29T00:06:01;96619.25;;;16.38;66.80
77240;BME280;66258;53.170;-2.240;2024-03-29T00:08:27;96634.31;;;16.55;66.41
77240;BME280;66258;53.170;-2.240;2024-03-29T00:10:53;96633.22;;;16.13;66.97
77240;BME280;66258;53.170;-2.240;2024-03-29T00:13:19;96645.81;;;16.52;67.25
77240;BME280;66258;53.170;-2.240;2024-03-29T00:15:47;96650.47;;;16.51;66.38
77240;BME280;66258;53.170;-2.240;2024-03-29T00:18:13;96650.13;;;15.86;67.57
77240;BME280;66258;53.170;-2.240;2024-03-29T00:20:39;96657.19;;;15.63;69.30
77240;BME280;66258;53.170;-2.240;2024-03-29T00:23:05;96657.28;;;15.48;70.52
77240;BME280;66258;53.170;-2.240;2024-03-29T00:25:32;96655.78;;;15.66;70.79
77240;BME280;66258;53.170;-2.240;2024-03-29T00:27:58;96650.25;;;15.42;71.57
77240;BME280;66258;53.170;-2.240;2024-03-29T00:30:24;96659.44;;;15.56;71.59
77240;BME280;66258;53.170;-2.240;2024-03-29T00:32:52;96665.84;;;15.70;71.37
77240;BME280;66258;53.170;-2.240;2024-03-29T00:35:18;96682.88;;;16.10;69.83
77240;BME280;66258;53.170;-2.240;2024-03-29T00:37:44;96694.91;;;16.09;68.97
77240;BME280;66258;53.170;-2.240;2024-03-29T00:40:11;96700.25;;;16.19;69.25
77240;BME280;66258;53.170;-2.240;2024-03-29T00:42:37;96704.66;;;16.15;68.83
77240;BME280;66258;53.170;-2.240;2024-03-29T00:45:04;96701.66;;;16.17;69.28
77240;BME280;66258;53.170;-2.240;2024-03-29T00:47:31;96708.78;;;16.36;69.42
77240;BME280;66258;53.170;-2.240;2024-03-29T00:49:58;96703.38;;;16.31;69.17
77240;BME280;66258;53.170;-2.240;2024-03-29T00:52:25;96715.50;;;16.44;69.16
77240;BME280;66258;53.170;-2.240;2024-03-29T00:54:51;96715.66;;;16.34;69.28
77240;BME280;66258;53.170;-2.240;2024-03-29T00:57:17;96724.13;;;16.32;69.94
77240;BME280;66258;53.170;-2.240;2024-03-29T00:59:44;96719.75;;;16.31;70.04
77240;BME280;66258;53.170;-2.240;2024-03-29T01:02:10;96728.00;;;16.26;70.72
77240;BME280;66258;53.170;-2.240;2024-03-29T01:04:37;96730.19;;;16.24;70.04
77240;BME280;66258;53.170;-2.240;2024-03-29T01:07:04;96733.66;;;16.06;70.98
77240;BME280;66258;53.170;-2.240;2024-03-29T01:09:31;96730.19;;;16.24;71.36
77240;BME280;66258;53.170;-2.240;2024-03-29T01:11:57;96729.50;;;16.13;71.05
77240;BME280;66258;53.170;-2.240;2024-03-29T01:14:24;96745.88;;;16.13;71.60
77240;BME280;66258;53.170;-2.240;2024-03-29T01:16:50;96740.56;;;15.98;71.84
77240;BME280;66258;53.170;-2.240;2024-03-29T01:19:16;96749.09;;;15.92;73.14
77240;BME280;66258;53.170;-2.240;2024-03-29T01:21:42;96747.78;;;16.13;71.94
77240;BME280;66258;53.170;-2.240;2024-03-29T01:24:09;96750.84;;;16.06;72.02
77240;BME280;66258;53.170;-2.240;2024-03-29T01:26:35;96751.09;;;16.10;71.68
77240;BME280;66258;53.170;-2.240;2024-03-29T01:29:01;96752.50;;;16.02;72.38
77240;BME280;66258;53.170;-2.240;2024-03-29T01:31:27;96757.84;;;16.18;71.69
77240;BME280;66258;53.170;-2.240;2024-03-29T01:33:53;96766.31;;;16.16;71.36
77240;BME280;66258;53.170;-2.240;2024-03-29T01:36:19;96776.00;;;16.27;71.15
77240;BME280;66258;53.170;-2.240;2024-03-29T01:38:46;96774.38;;;16.26;70.96
77240;BME280;66258;53.170;-2.240;2024-03-29T01:41:13;96775.94;;;16.37;70.41
77240;BME280;66258;53.170;-2.240;2024-03-29T01:43:39;96780.38;;;16.28;70.44
77240;BME280;66258;53.170;-2.240;2024-03-29T01:46:05;96781.72;;;16.31;70.44
77240;BME280;66258;53.170;-2.240;2024-03-29T01:48:32;96786.69;;;16.24;70.61
77240;BME280;66258;53.170;-2.240;2024-03-29T01:50:59;96783.09;;;16.28;70.57
77240;BME280;66258;53.170;-2.240;2024-03-29T01:53:26;96792.09;;;16.29;70.19
77240;BME280;66258;53.170;-2.240;2024-03-29T01:55:53;96787.50;;;15.95;71.56
77240;BME280;66258;53.170;-2.240;2024-03-29T01:58:22;96790.66;;;15.78;72.09
77240;BME280;66258;53.170;-2.240;2024-03-29T02:00:51;96780.50;;;15.84;73.00
77240;BME280;66258;53.170;-2.240;2024-03-29T02:03:19;96784.31;;;15.83;72.87
77240;BME280;66258;53.170;-2.240;2024-03-29T02:05:46;96790.69;;;15.73;72.78
77240;BME280;66258;53.170;-2.240;2024-03-29T02:08:13;96783.56;;;15.77;73.15
77240;BME280;66258;53.170;-2.240;2024-03-29T02:10:40;96785.88;;;15.94;72.91
77240;BME280;66258;53.170;-2.240;2024-03-29T02:13:06;96794.84;;;16.00;71.63
77240;BME280;66258;53.170;-2.240;2024-03-29T02:15:34;96789.63;;;15.69;72.76
77240;BME280;66258;53.170;-2.240;2024-03-29T02:17:59;96801.34;;;15.70;73.87
77240;BME280;66258;53.170;-2.240;2024-03-29T02:20:26;96808.41;;;16.05;72.74
77240;BME280;66258;53.170;-2.240;2024-03-29T02:22:54;96815.63;;;15.91;72.15
77240;BME280;66258;53.170;-2.240;2024-03-29T02:25:22;96817.97;;;15.73;73.04
77240;BME280;66258;53.170;-2.240;2024-03-29T02:27:49;96816.88;;;15.69;73.81
77240;BME280;66258;53.170;-2.240;2024-03-29T02:30:16;96819.63;;;15.69;73.69
77240;BME280;66258;53.170;-2.240;2024-03-29T02:32:43;96822.91;;;15.66;73.93
77240;BME280;66258;53.170;-2.240;2024-03-29T02:35:09;96820.97;;;15.72;73.70
77240;BME280;66258;53.170;-2.240;2024-03-29T02:37:35;96827.78;;;16.03;72.16
77240;BME280;66258;53.170;-2.240;2024-03-29T02:40:02;96828.53;;;16.14;70.90
77240;BME280;66258;53.170;-2.240;2024-03-29T02:42:29;96842.66;;;16.21;70.44
77240;BME280;66258;53.170;-2.240;2024-03-29T02:44:55;96839.44;;;16.14;70.76
77240;BME280;66258;53.170;-2.240;2024-03-29T02:47:21;96832.63;;;16.17;70.93
77240;BME280;66258;53.170;-2.240;2024-03-29T02:49:47;96826.41;;;16.06;71.56
77240;BME280;66258;53.170;-2.240;2024-03-29T02:52:13;96826.50;;;15.96;71.30
77240;BME280;66258;53.170;-2.240;2024-03-29T02:54:40;96826.66;;;16.09;71.15
77240;BME280;66258;53.170;-2.240;2024-03-29T02:57:06;96817.19;;;15.63;71.97
77240;BME280;66258;53.170;-2.240;2024-03-29T02:59:34;96826.00;;;15.44;74.12
77240;BME280;66258;53.170;-2.240;2024-03-29T03:02:00;96834.34;;;15.68;73.24
77240;BME280;66258;53.170;-2.240;2024-03-29T03:04:27;96824.50;;;15.72;72.32
77240;BME280;66258;53.170;-2.240;2024-03-29T03:06:53;96835.28;;;15.88;71.53
77240;BME280;66258;53.170;-2.240;2024-03-29T03:09:19;96839.94;;;15.87;71.31
77240;BME280;66258;53.170;-2.240;2024-03-29T03:11:46;96837.19;;;15.87;71.34
77240;BME280;66258;53.170;-2.240;2024-03-29T03:14:12;96841.06;;;15.81;71.33
77240;BME280;66258;53.170;-2.240;2024-03-29T03:16:39;96847.41;;;15.71;71.49
77240;BME280;66258;53.170;-2.240;2024-03-29T03:19:06;96835.81;;;15.90;71.08
77240;BME280;66258;53.170;-2.240;2024-03-29T03:21:32;96838.94;;;15.78;71.07
77240;BME280;66258;53.170;-2.240;2024-03-29T03:23:58;96830.97;;;15.81;70.92
77240;BME280;66258;53.170;-2.240;2024-03-29T03:26:24;96830.81;;;15.68;70.77
77240;BME280;66258;53.170;-2.240;2024-03-29T03:28:50;96831.59;;;15.73;71.25
77240;BME280;66258;53.170;-2.240;2024-03-29T03:31:16;96826.66;;;15.75;71.03
77240;BME280;66258;53.170;-2.240;2024-03-29T03:33:44;96825.03;;;15.74;70.64
77240;BME280;66258;53.170;-2.240;2024-03-29T03:36:10;96839.16;;;15.81;70.86
77240;BME280;66258;53.170;-2.240;2024-03-29T03:38:36;96838.06;;;15.82;70.83
77240;BME280;66258;53.170;-2.240;2024-03-29T03:41:05;96842.53;;;15.68;70.58
77240;BME280;66258;53.170;-2.240;2024-03-29T03:43:31;96840.56;;;15.79;71.09
77240;BME280;66258;53.170;-2.240;2024-03-29T03:46:00;96841.06;;;15.81;70.60
77240;BME280;66258;53.170;-2.240;2024-03-29T03:48:27;96847.31;;;15.81;70.22
77240;BME280;66258;53.170;-2.240;2024-03-29T03:50:55;96845.78;;;15.70;69.66
77240;BME280;66258;53.170;-2.240;2024-03-29T03:53:21;96841.97;;;15.71;70.23
77240;BME280;66258;53.170;-2.240;2024-03-29T03:55:47;96850.97;;;15.67;69.70
77240;BME280;66258;53.170;-2.240;2024-03-29T03:58:13;96849.06;;;15.67;69.88
77240;BME280;66258;53.170;-2.240;2024-03-29T04:00:39;96855.91;;;15.65;70.12
77240;BME280;66258;53.170;-2.240;2024-03-29T04:03:09;96863.00;;;15.66;70.30
77240;BME280;66258;53.170;-2.240;2024-03-29T04:05:36;96858.63;;;15.65;70.31
77240;BME280;66258;53.170;-2.240;2024-03-29T04:08:05;96863.50;;;15.73;70.15
77240;BME280;66258;53.170;-2.240;2024-03-29T04:10:31;96858.88;;;15.68;69.82
77240;BME280;66258;53.170;-2.240;2024-03-29T04:12:57;96856.16;;;15.68;69.84
77240;BME280;66258;53.170;-2.240;2024-03-29T04:15:24;96858.84;;;15.73;69.72
77240;BME280;66258;53.170;-2.240;2024-03-29T04:17:50;96853.97;;;15.70;69.37
77240;BME280;66258;53.170;-2.240;2024-03-29T04:20:16;96857.00;;;15.64;69.52
77240;BME280;66258;53.170;-2.240;2024-03-29T04:22:42;96859.19;;;15.62;69.28
77240;BME280;66258;53.170;-2.240;2024-03-29T04:25:09;96858.38;;;15.61;69.29
77240;BME280;66258;53.170;-2.240;2024-03-29T04:27:36;96858.97;;;15.58;69.21
77240;BME280;66258;53.170;-2.240;2024-03-29T04:30:02;96856.25;;;15.58;69.34
77240;BME280;66258;53.170;-2.240;2024-03-29T04:32:28;96865.22;;;15.54;68.89
77240;BME280;66258;53.170;-2.240;2024-03-29T04:34:54;96883.31;;;15.29;69.68
77240;BME280;66258;53.170;-2.240;2024-03-29T04:37:21;96876.16;;;15.43;69.91
77240;BME280;66258;53.170;-2.240;2024-03-29T04:39:47;96868.31;;;15.37;70.24
77240;BME280;66258;53.170;-2.240;2024-03-29T04:42:15;96878.41;;;15.36;70.62
77240;BME280;66258;53.170;-2.240;2024-03-29T04:44:41;96879.72;;;15.39;70.79
77240;BME280;66258;53.170;-2.240;2024-03-29T04:47:07;96880.53;;;15.44;70.66
77240;BME280;66258;53.170;-2.240;2024-03-29T04:49:34;96890.31;;;15.51;70.19
77240;BME280;66258;53.170;-2.240;2024-03-29T04:52:01;96888.41;;;15.51;70.19
77240;BME280;66258;53.170;-2.240;2024-03-29T04:54:27;96885.13;;;15.54;69.92
77240;BME280;66258;53.170;-2.240;2024-03-29T04:56:53;96880.22;;;15.56;69.90
77240;BME280;66258;53.170;-2.240;2024-03-29T04:59:21;96888.16;;;15.42;70.38
77240;BME280;66258;53.170;-2.240;2024-03-29T05:01:47;96900.41;;;15.45;70.75
77240;BME280;66258;53.170;-2.240;2024-03-29T05:04:14;96893.56;;;15.53;71.26
77240;BME280;66258;53.170;-2.240;2024-03-29T05:06:39;96888.69;;;15.50;71.18
77240;BME280;66258;53.170;-2.240;2024-03-29T05:09:05;96891.50;;;15.29;71.34
77240;BME280;66258;53.170;-2.240;2024-03-29T05:11:32;96899.66;;;15.34;71.99
77240;BME280;66258;53.170;-2.240;2024-03-29T05:13:58;96896.97;;;15.24;72.50
77240;BME280;66258;53.170;-2.240;2024-03-29T05:16:25;96889.38;;;15.16;72.19
77240;BME280;66258;53.170;-2.240;2024-03-29T05:18:51;96890.22;;;15.17;73.11
77240;BME280;66258;53.170;-2.240;2024-03-29T05:21:18;96890.75;;;15.13;72.75
77240;BME280;66258;53.170;-2.240;2024-03-29T05:23:44;96891.78;;;15.23;72.34
77240;BME280;66258;53.170;-2.240;2024-03-29T05:26:10;96884.97;;;15.25;72.18
77240;BME280;66258;53.170;-2.240;2024-03-29T05:28:36;96878.72;;;15.20;72.97
77240;BME280;66258;53.170;-2.240;2024-03-29T05:31:13;96884.16;;;15.25;72.85
77240;BME280;66258;53.170;-2.240;2024-03-29T05:33:41;96893.13;;;15.30;72.66
77240;BME280;66258;53.170;-2.240;2024-03-29T05:36:07;96893.69;;;15.32;71.91
77240;BME280;66258;53.170;-2.240;2024-03-29T05:38:33;96889.56;;;15.35;71.80
77240;BME280;66258;53.170;-2.240;2024-03-29T05:40:59;96890.66;;;15.34;71.54
77240;BME280;66258;53.170;-2.240;2024-03-29T05:43:26;96890.41;;;15.30;72.01
77240;BME280;66258;53.170;-2.240;2024-03-29T05:45:52;96886.59;;;15.31;71.93
77240;BME280;66258;53.170;-2.240;2024-03-29T05:48:19;96897.25;;;15.23;72.92
77240;BME280;66258;53.170;-2.240;2024-03-29T05:50:46;96900.53;;;15.20;73.52
77240;BME280;66258;53.170;-2.240;2024-03-29T05:53:13;96900.75;;;15.33;74.62
77240;BME280;66258;53.170;-2.240;2024-03-29T05:55:39;96902.59;;;15.43;74.21
77240;BME280;66258;53.170;-2.240;2024-03-29T05:58:05;96904.50;;;15.42;73.84
77240;BME280;66258;53.170;-2.240;2024-03-29T06:00:32;96908.28;;;15.52;73.80
77240;BME280;66258;53.170;-2.240;2024-03-29T06:02:58;96914.84;;;15.51;74.03
77240;BME280;66258;53.170;-2.240;2024-03-29T06:05:24;96903.66;;;15.57;74.59
77240;BME280;66258;53.170;-2.240;2024-03-29T06:07:51;96910.97;;;15.62;75.01
77240;BME280;66258;53.170;-2.240;2024-03-29T06:10:18;96911.78;;;15.67;74.77
77240;BME280;66258;53.170;-2.240;2024-03-29T06:12:44;96912.91;;;15.61;74.75
77240;BME280;66258;53.170;-2.240;2024-03-29T06:15:10;96910.16;;;15.66;75.03
77240;BME280;66258;53.170;-2.240;2024-03-29T06:17:36;96903.28;;;15.79;75.02
77240;BME280;66258;53.170;-2.240;2024-03-29T06:20:03;96919.25;;;15.96;74.57
77240;BME280;66258;53.170;-2.240;2024-03-29T06:22:29;96912.03;;;16.15;74.34
77240;BME280;66258;53.170;-2.240;2024-03-29T06:24:57;96912.84;;;16.15;74.08
77240;BME280;66258;53.170;-2.240;2024-03-29T06:27:23;96914.91;;;16.29;73.46
77240;BME280;66258;53.170;-2.240;2024-03-29T06:29:49;96910.75;;;16.36;73.31
77240;BME280;66258;53.170;-2.240;2024-03-29T06:32:16;96911.19;;;16.48;73.40
77240;BME280;66258;53.170;-2.240;2024-03-29T06:34:42;96920.66;;;16.61;73.89
77240;BME280;66258;53.170;-2.240;2024-03-29T06:37:08;96921.38;;;16.72;74.54
77240;BME280;66258;53.170;-2.240;2024-03-29T06:39:34;96918.38;;;16.73;74.42
77240;BME280;66258;53.170;-2.240;2024-03-29T06:42:02;96925.31;;;16.90;74.54
77240;BME280;66258;53.170;-2.240;2024-03-29T06:44:28;96928.81;;;16.95;74.91
77240;BME280;66258;53.170;-2.240;2024-03-29T06:46:55;96934.88;;;16.87;75.24
77240;BME280;66258;53.170;-2.240;2024-03-29T06:49:21;96928.06;;;16.84;75.32
77240;BME280;66258;53.170;-2.240;2024-03-29T06:51:47;96925.75;;;16.73;75.87
77240;BME280;66258;53.170;-2.240;2024-03-29T06:54:14;96926.66;;;16.92;76.19
77240;BME280;66258;53.170;-2.240;2024-03-29T06:56:40;96934.47;;;17.04;75.83
77240;BME280;66258;53.170;-2.240;2024-03-29T06:59:07;96922.00;;;17.16;74.87
77240;BME280;66258;53.170;-2.240;2024-03-29T07:01:34;96930.88;;;17.51;74.69
77240;BME280;66258;53.170;-2.240;2024-03-29T07:04:00;96929.09;;;17.41;73.67
77240;BME280;66258;53.170;-2.240;2024-03-29T07:06:26;96924.25;;;17.57;72.88
77240;BME280;66258;53.170;-2.240;2024-03-29T07:08:52;96930.66;;;17.90;73.04
77240;BME280;66258;53.170;-2.240;2024-03-29T07:11:18;96929.31;;;17.88;71.98
77240;BME280;66258;53.170;-2.240;2024-03-29T07:13:44;96925.28;;;18.23;72.50
77240;BME280;66258;53.170;-2.240;2024-03-29T07:16:12;96929.34;;;18.58;77.04
77240;BME280;66258;53.170;-2.240;2024-03-29T07:18:38;96942.50;;;19.20;76.92
77240;BME280;66258;53.170;-2.240;2024-03-29T07:21:04;96950.66;;;19.80;76.91
77240;BME280;66258;53.170;-2.240;2024-03-29T07:23:30;96945.47;;;20.29;71.97
77240;BME280;66258;53.170;-2.240;2024-03-29T07:25:58;96953.16;;;20.40;68.93
77240;BME280;66258;53.170;-2.240;2024-03-29T07:28:24;96953.75;;;20.51;61.85
77240;BME280;66258;53.170;-2.240;2024-03-29T07:30:50;96947.50;;;19.87;60.18
77240;BME280;66258;53.170;-2.240;2024-03-29T07:33:18;96938.75;;;19.16;61.05
77240;BME280;66258;53.170;-2.240;2024-03-29T07:35:44;96945.22;;;18.42;62.23
77240;BME280;66258;53.170;-2.240;2024-03-29T07:38:10;96938.06;;;18.08;63.84
77240;BME280;66258;53.170;-2.240;2024-03-29T07:40:36;96942.81;;;17.60;66.53
77240;BME280;66258;53.170;-2.240;2024-03-29T07:43:03;96941.88;;;17.46;68.86
77240;BME280;66258;53.170;-2.240;2024-03-29T07:45:29;96938.84;;;17.47;69.70
77240;BME280;66258;53.170;-2.240;2024-03-29T07:47:55;96940.78;;;17.47;70.25
77240;BME280;66258;53.170;-2.240;2024-03-29T07:50:22;96939.09;;;17.51;71.53
77240;BME280;66258;53.170;-2.240;2024-03-29T07:52:48;96952.00;;;17.69;72.20
77240;BME280;66258;53.170;-2.240;2024-03-29T07:55:15;96948.72;;;17.91;72.59
77240;BME280;66258;53.170;-2.240;2024-03-29T07:57:41;96947.59;;;18.11;72.41
77240;BME280;66258;53.170;-2.240;2024-03-29T08:00:08;96955.63;;;18.26;72.31
77240;BME280;66258;53.170;-2.240;2024-03-29T08:02:34;96953.66;;;18.64;73.24
77240;BME280;66258;53.170;-2.240;2024-03-29T08:05:00;96962.28;;;18.71;72.29
77240;BME280;66258;53.170;-2.240;2024-03-29T08:07:28;96952.56;;;19.11;71.20
77240;BME280;66258;53.170;-2.240;2024-03-29T08:09:57;96957.72;;;19.13;70.82
77240;BME280;66258;53.170;-2.240;2024-03-29T08:12:23;96963.56;;;18.93;70.50
77240;BME280;66258;53.170;-2.240;2024-03-29T08:14:49;96956.50;;;18.73;71.15
77240;BME280;66258;53.170;-2.240;2024-03-29T08:17:16;96969.84;;;18.79;71.49
77240;BME280;66258;53.170;-2.240;2024-03-29T08:19:42;96969.72;;;19.17;70.84
77240;BME280;66258;53.170;-2.240;2024-03-29T08:22:08;96973.97;;;19.09;70.23
77240;BME280;66258;53.170;-2.240;2024-03-29T08:24:36;96968.59;;;19.04;69.23
77240;BME280;66258;53.170;-2.240;2024-03-29T08:27:03;96974.41;;;19.30;70.51
77240;BME280;66258;53.170;-2.240;2024-03-29T08:29:29;96984.81;;;19.88;68.08
77240;BME280;66258;53.170;-2.240;2024-03-29T08:31:56;96978.06;;;20.08;67.93
77240;BME280;66258;53.170;-2.240;2024-03-29T08:34:22;96978.09;;;20.30;66.74
77240;BME280;66258;53.170;-2.240;2024-03-29T08:36:48;96970.06;;;20.34;66.45
77240;BME280;66258;53.170;-2.240;2024-03-29T08:39:14;96980.25;;;20.33;65.77
77240;BME280;66258;53.170;-2.240;2024-03-29T08:41:42;96982.44;;;20.45;66.05
77240;BME280;66258;53.170;-2.240;2024-03-29T08:44:08;96989.78;;;20.94;70.48
77240;BME280;66258;53.170;-2.240;2024-03-29T08:46:34;97004.44;;;22.13;67.84
77240;BME280;66258;53.170;-2.240;2024-03-29T08:49:01;97010.63;;;22.36;62.03
77240;BME280;66258;53.170;-2.240;2024-03-29T08:51:27;97018.13;;;21.96;59.61
77240;BME280;66258;53.170;-2.240;2024-03-29T08:53:53;97016.34;;;21.52;60.10
77240;BME280;66258;53.170;-2.240;2024-03-29T08:56:19;97005.63;;;21.19;60.54
77240;BME280;66258;53.170;-2.240;2024-03-29T08:58:47;97003.13;;;21.09;62.53
77240;BME280;66258;53.170;-2.240;2024-03-29T09:01:15;96995.69;;;21.32;61.99
77240;BME280;66258;53.170;-2.240;2024-03-29T09:03:41;97009.88;;;21.03;60.83
77240;BME280;66258;53.170;-2.240;2024-03-29T09:06:07;97009.22;;;20.75;60.89
77240;BME280;66258;53.170;-2.240;2024-03-29T09:08:33;97010.66;;;20.73;62.73
77240;BME280;66258;53.170;-2.240;2024-03-29T09:10:59;97007.66;;;20.11;64.13
77240;BME280;66258;53.170;-2.240;2024-03-29T09:13:25;97019.25;;;20.57;63.46
77240;BME280;66258;53.170;-2.240;2024-03-29T09:15:53;97022.22;;;20.47;62.78
77240;BME280;66258;53.170;-2.240;2024-03-29T09:18:19;97016.56;;;20.66;63.65
77240;BME280;66258;53.170;-2.240;2024-03-29T09:20:45;97022.31;;;20.56;63.63
77240;BME280;66258;53.170;-2.240;2024-03-29T09:23:11;97023.19;;;20.65;63.09
77240;BME280;66258;53.170;-2.240;2024-03-29T09:25:39;97019.25;;;20.57;64.11
77240;BME280;66258;53.170;-2.240;2024-03-29T09:28:06;97030.00;;;20.90;64.30
77240;BME280;66258;53.170;-2.240;2024-03-29T09:30:32;97026.25;;;20.86;62.96
77240;BME280;66258;53.170;-2.240;2024-03-29T09:33:00;97035.38;;;20.73;63.77
77240;BME280;66258;53.170;-2.240;2024-03-29T09:35:26;97019.94;;;20.85;62.81
77240;BME280;66258;53.170;-2.240;2024-03-29T09:37:52;97033.06;;;21.11;63.48
77240;BME280;66258;53.170;-2.240;2024-03-29T09:40:19;97039.13;;;21.21;62.70
77240;BME280;66258;53.170;-2.240;2024-03-29T09:42:45;97036.56;;;21.25;62.78
77240;BME280;66258;53.170;-2.240;2024-03-29T09:45:13;97036.00;;;21.37;61.48
77240;BME280;66258;53.170;-2.240;2024-03-29T09:47:41;97054.31;;;21.19;60.73
77240;BME280;66258;53.170;-2.240;2024-03-29T09:50:10;97051.13;;;21.03;61.91
77240;BME280;66258;53.170;-2.240;2024-03-29T09:52:37;97046.09;;;20.97;61.68
77240;BME280;66258;53.170;-2.240;2024-03-29T09:55:04;97052.66;;;21.32;62.35
77240;BME280;66258;53.170;-2.240;2024-03-29T09:57:31;97061.63;;;21.46;61.45
77240;BME280;66258;53.170;-2.240;2024-03-29T09:59:57;97058.75;;;21.90;61.28
77240;BME280;66258;53.170;-2.240;2024-03-29T10:02:25;97066.78;;;22.01;59.18
77240;BME280;66258;53.170;-2.240;2024-03-29T10:04:53;97069.00;;;21.99;58.58
77240;BME280;66258;53.170;-2.240;2024-03-29T10:07:23;97078.16;;;22.16;59.35
77240;BME280;66258;53.170;-2.240;2024-03-29T10:09:50;97071.75;;;22.47;57.66
77240;BME280;66258;53.170;-2.240;2024-03-29T10:12:16;97079.50;;;22.36;56.71
77240;BME280;66258;53.170;-2.240;2024-03-29T10:14:46;97080.66;;;21.95;57.11
77240;BME280;66258;53.170;-2.240;2024-03-29T10:17:12;97073.50;;;22.34;57.78
77240;BME280;66258;53.170;-2.240;2024-03-29T10:19:38;97081.06;;;22.94;58.66
77240;BME280;66258;53.170;-2.240;2024-03-29T10:22:08;97083.78;;;23.28;56.30
77240;BME280;66258;53.170;-2.240;2024-03-29T10:24:36;97086.19;;;23.64;54.59
77240;BME280;66258;53.170;-2.240;2024-03-29T10:27:03;97084.44;;;23.98;52.81
77240;BME280;66258;53.170;-2.240;2024-03-29T10:29:30;97092.31;;;24.17;52.09
77240;BME280;66258;53.170;-2.240;2024-03-29T10:31:56;97096.22;;;24.24;50.45
77240;BME280;66258;53.170;-2.240;2024-03-29T10:34:22;97100.66;;;24.46;49.56
77240;BME280;66258;53.170;-2.240;2024-03-29T10:36:50;97097.88;;;24.76;48.94
77240;BME280;66258;53.170;-2.240;2024-03-29T10:39:16;97095.47;;;24.45;47.93
77240;BME280;66258;53.170;-2.240;2024-03-29T10:41:47;97097.94;;;24.67;48.20
77240;BME280;66258;53.170;-2.240;2024-03-29T10:44:13;97091.16;;;25.06;47.18
77240;BME280;66258;53.170;-2.240;2024-03-29T10:46:40;97088.97;;;24.70;46.07
77240;BME280;66258;53.170;-2.240;2024-03-29T10:49:07;97088.44;;;25.18;46.31
77240;BME280;66258;53.170;-2.240;2024-03-29T10:51:33;97091.53;;;25.17;44.77
77240;BME280;66258;53.170;-2.240;2024-03-29T10:54:00;97102.91;;;25.03;45.60
77240;BME280;66258;53.170;-2.240;2024-03-29T10:56:28;97096.19;;;24.83;45.65
77240;BME280;66258;53.170;-2.240;2024-03-29T10:59:03;97093.84;;;24.73;44.14
77240;BME280;66258;53.170;-2.240;2024-03-29T11:01:32;97100.78;;;24.79;44.01
77240;BME280;66258;53.170;-2.240;2024-03-29T11:04:06;97101.66;;;24.92;44.97
77240;BME280;66258;53.170;-2.240;2024-03-29T11:06:38;97095.38;;;24.83;44.71
77240;BME280;66258;53.170;-2.240;2024-03-29T11:09:07;97087.28;;;24.78;42.92
77240;BME280;66258;53.170;-2.240;2024-03-29T11:11:36;97097.84;;;24.55;44.57
77240;BME280;66258;53.170;-2.240;2024-03-29T11:14:07;97095.00;;;24.43;43.74
77240;BME280;66258;53.170;-2.240;2024-03-29T11:16:34;97100.78;;;24.12;45.05
77240;BME280;66258;53.170;-2.240;2024-03-29T11:19:01;97086.97;;;23.74;44.76
77240;BME280;66258;53.170;-2.240;2024-03-29T11:21:28;97089.78;;;23.39;45.06
77240;BME280;66258;53.170;-2.240;2024-03-29T11:23:54;97086.47;;;23.72;46.76
77240;BME280;66258;53.170;-2.240;2024-03-29T11:26:20;97085.66;;;24.26;44.85
77240;BME280;66258;53.170;-2.240;2024-03-29T11:28:49;97081.59;;;23.86;44.76
77240;BME280;66258;53.170;-2.240;2024-03-29T11:31:17;97088.81;;;24.08;45.95
77240;BME280;66258;53.170;-2.240;2024-03-29T11:33:44;97077.78;;;24.37;45.94
77240;BME280;66258;53.170;-2.240;2024-03-29T11:36:12;97091.72;;;24.49;45.93
77240;BME280;66258;53.170;-2.240;2024-03-29T11:38:39;97091.50;;;24.54;44.56
77240;BME280;66258;53.170;-2.240;2024-03-29T11:41:07;97100.69;;;24.67;44.73
77240;BME280;66258;53.170;-2.240;2024-03-29T11:43:34;97103.53;;;24.79;44.10
77240;BME280;66258;53.170;-2.240;2024-03-29T11:46:01;97119.50;;;25.03;43.62
77240;BME280;66258;53.170;-2.240;2024-03-29T11:48:29;97118.31;;;24.83;42.71
77240;BME280;66258;53.170;-2.240;2024-03-29T11:50:57;97119.06;;;24.92;42.87
77240;BME280;66258;53.170;-2.240;2024-03-29T11:53:23;97110.06;;;25.04;40.84
77240;BME280;66258;53.170;-2.240;2024-03-29T11:55:49;97119.91;;;24.34;39.27
77240;BME280;66258;53.170;-2.240;2024-03-29T11:58:15;97125.88;;;23.98;39.40
77240;BME280;66258;53.170;-2.240;2024-03-29T12:00:41;97132.31;;;23.38;39.53
77240;BME280;66258;53.170;-2.240;2024-03-29T12:03:07;97132.66;;;23.19;41.47
77240;BME280;66258;53.170;-2.240;2024-03-29T12:05:36;97124.22;;;23.59;40.39
77240;BME280;66258;53.170;-2.240;2024-03-29T12:08:02;97123.19;;;23.81;41.25
77240;BME280;66258;53.170;-2.240;2024-03-29T12:10:28;97128.44;;;24.12;41.43
77240;BME280;66258;53.170;-2.240;2024-03-29T12:12:56;97124.47;;;23.83;41.14
77240;BME280;66258;53.170;-2.240;2024-03-29T12:15:23;97136.53;;;23.44;41.75
77240;BME280;66258;53.170;-2.240;2024-03-29T12:17:54;97131.13;;;23.82;43.47
77240;BME280;66258;53.170;-2.240;2024-03-29T12:20:21;97135.72;;;25.34;42.06
77240;BME280;66258;53.170;-2.240;2024-03-29T12:22:48;97134.38;;;26.18;39.98
77240;BME280;66258;53.170;-2.240;2024-03-29T12:25:14;97130.06;;;25.96;39.62
77240;BME280;66258;53.170;-2.240;2024-03-29T12:27:42;97125.94;;;25.49;39.27
77240;BME280;66258;53.170;-2.240;2024-03-29T12:30:09;97123.50;;;25.14;40.89
77240;BME280;66258;53.170;-2.240;2024-03-29T12:32:35;97119.53;;;25.36;39.51
77240;BME280;66258;53.170;-2.240;2024-03-29T12:35:08;97118.31;;;25.13;40.48
77240;BME280;66258;53.170;-2.240;2024-03-29T12:37:34;97128.56;;;26.11;37.99
77240;BME280;66258;53.170;-2.240;2024-03-29T12:40:02;97130.59;;;26.72;35.46
77240;BME280;66258;53.170;-2.240;2024-03-29T12:42:30;97128.97;;;26.34;35.14
77240;BME280;66258;53.170;-2.240;2024-03-29T12:44:56;97131.72;;;26.70;35.55
77240;BME280;66258;53.170;-2.240;2024-03-29T12:47:23;97128.03;;;26.30;34.67